sensor_id;sensor_type;location;lat;lon;timestamp;temperature;humidity
13115;DHT22;6623;52.120;8.660;2022-10-14T00:01:10;14.20;91.10
13115;DHT22;6623;52.120;8.660;2022-10-14T00:03:38;13.50;91.10
13115;DHT22;6623;52.120;8.660;2022-10-14T00:06:14;13.60;91.40
13115;DHT22;6623;52.120;8.660;2022-10-14T00:08:52;13.50;91.30
13115;DHT22;6623;52.120;8.660;2022-10-14T00:11:18;14.50;91.50
13115;DHT22;6623;52.120;8.660;2022-10-14T00:13:44;13.50;91.20
13115;DHT22;6623;52.120;8.660;2022-10-14T00:16:20;14.30;91.40
13115;DHT22;6623;52.120;8.660;2022-10-14T00:18:49;13.60;91.30
13115;DHT22;6623;52.120;8.660;2022-10-14T00:21:14;13.70;91.30
13115;DHT22;6623;52.120;8.660;2022-10-14T00:23:40;15.40;91.80
13115;DHT22;6623;52.120;8.660;2022-10-14T00:26:21;14.20;91.50
13115;DHT22;6623;52.120;8.660;2022-10-14T00:28:47;13.50;91.30
13115;DHT22;6623;52.120;8.660;2022-10-14T00:31:13;13.80;91.50
13115;DHT22;6623;52.120;8.660;2022-10-14T00:33:42;14.40;91.60
13115;DHT22;6623;52.120;8.660;2022-10-14T00:36:09;13.50;91.40
13115;DHT22;6623;52.120;8.660;2022-10-14T00:38:38;13.50;91.40
13115;DHT22;6623;52.120;8.660;2022-10-14T00:41:04;13.50;91.40
13115;DHT22;6623;52.120;8.660;2022-10-14T00:43:47;13.50;91.40
13115;DHT22;6623;52.120;8.660;2022-10-14T00:46:14;13.90;91.50
13115;DHT22;6623;52.120;8.660;2022-10-14T00:48:46;14.60;91.70
13115;DHT22;6623;52.120;8.660;2022-10-14T00:51:12;13.70;91.40
13115;DHT22;6623;52.120;8.660;2022-10-14T00:53:41;15.00;91.70
13115;DHT22;6623;52.120;8.660;2022-10-14T00:56:13;13.50;91.30
13115;DHT22;6623;52.120;8.660;2022-10-14T00:58:40;13.50;91.30
13115;DHT22;6623;52.120;8.660;2022-10-14T01:01:06;13.50;91.30
13115;DHT22;6623;52.120;8.660;2022-10-14T01:03:32;14.40;91.50
13115;DHT22;6623;52.120;8.660;2022-10-14T01:08:42;13.50;91.30
13115;DHT22;6623;52.120;8.660;2022-10-14T01:11:12;14.30;91.50
13115;DHT22;6623;52.120;8.660;2022-10-14T01:13:47;14.00;91.40
13115;DHT22;6623;52.120;8.660;2022-10-14T01:21:39;13.50;91.30
13115;DHT22;6623;52.120;8.660;2022-10-14T01:29:55;13.50;91.30
13115;DHT22;6623;52.120;8.660;2022-10-14T01:32:23;13.50;91.20
13115;DHT22;6623;52.120;8.660;2022-10-14T01:37:36;13.40;91.10
13115;DHT22;6623;52.120;8.660;2022-10-14T01:40:04;13.90;91.30
13115;DHT22;6623;52.120;8.660;2022-10-14T01:42:32;14.80;91.60
13115;DHT22;6623;52.120;8.660;2022-10-14T01:45:02;15.10;91.70
13115;DHT22;6623;52.120;8.660;2022-10-14T01:47:35;13.40;91.30
13115;DHT22;6623;52.120;8.660;2022-10-14T01:50:02;13.70;91.40
13115;DHT22;6623;52.120;8.660;2022-10-14T01:52:33;14.30;91.60
13115;DHT22;6623;52.120;8.660;2022-10-14T01:55:02;13.40;91.40
13115;DHT22;6623;52.120;8.660;2022-10-14T01:57:34;13.40;91.40
13115;DHT22;6623;52.120;8.660;2022-10-14T02:00:04;14.50;91.70
13115;DHT22;6623;52.120;8.660;2022-10-14T02:02:33;13.40;91.40
13115;DHT22;6623;52.120;8.660;2022-10-14T02:05:06;15.10;91.80
13115;DHT22;6623;52.120;8.660;2022-10-14T02:07:34;13.40;91.40
13115;DHT22;6623;52.120;8.660;2022-10-14T02:10:21;14.40;91.60
13115;DHT22;6623;52.120;8.660;2022-10-14T02:15:32;13.40;91.30
13115;DHT22;6623;52.120;8.660;2022-10-14T02:20:54;13.40;91.30
13115;DHT22;6623;52.120;8.660;2022-10-14T02:23:29;13.40;91.30
13115;DHT22;6623;52.120;8.660;2022-10-14T02:25:58;13.40;91.30
13115;DHT22;6623;52.120;8.660;2022-10-14T02:28:26;14.00;91.40
13115;DHT22;6623;52.120;8.660;2022-10-14T02:30:59;14.90;91.70
13115;DHT22;6623;52.120;8.660;2022-10-14T02:33:27;13.40;91.30
13115;DHT22;6623;52.120;8.660;2022-10-14T02:36:17;13.40;91.30
13115;DHT22;6623;52.120;8.660;2022-10-14T02:38:40;13.70;91.30
13115;DHT22;6623;52.120;8.660;2022-10-14T02:41:06;13.60;91.30
13115;DHT22;6623;52.120;8.660;2022-10-14T02:43:34;13.40;91.20
13115;DHT22;6623;52.120;8.660;2022-10-14T02:46:00;14.80;91.50
13115;DHT22;6623;52.120;8.660;2022-10-14T02:48:30;14.00;91.40
13115;DHT22;6623;52.120;8.660;2022-10-14T02:50:55;13.40;91.20
13115;DHT22;6623;52.120;8.660;2022-10-14T02:53:21;14.30;91.50
13115;DHT22;6623;52.120;8.660;2022-10-14T02:55:46;15.40;91.80
13115;DHT22;6623;52.120;8.660;2022-10-14T02:58:12;13.40;91.20
13115;DHT22;6623;52.120;8.660;2022-10-14T03:00:43;14.90;91.60
13115;DHT22;6623;52.120;8.660;2022-10-14T03:03:09;13.40;91.20
13115;DHT22;6623;52.120;8.660;2022-10-14T03:05:34;13.30;91.20
13115;DHT22;6623;52.120;8.660;2022-10-14T03:08:00;13.80;91.30
13115;DHT22;6623;52.120;8.660;2022-10-14T03:10:28;15.10;91.60
13115;DHT22;6623;52.120;8.660;2022-10-14T03:12:56;15.10;91.60
13115;DHT22;6623;52.120;8.660;2022-10-14T03:15:22;13.30;91.20
13115;DHT22;6623;52.120;8.660;2022-10-14T03:17:47;14.50;91.50
13115;DHT22;6623;52.120;8.660;2022-10-14T03:20:14;13.60;91.20
13115;DHT22;6623;52.120;8.660;2022-10-14T03:22:39;13.90;91.30
13115;DHT22;6623;52.120;8.660;2022-10-14T03:25:05;15.00;91.60
13115;DHT22;6623;52.120;8.660;2022-10-14T03:27:30;13.40;91.20
13115;DHT22;6623;52.120;8.660;2022-10-14T03:29:56;14.90;91.50
13115;DHT22;6623;52.120;8.660;2022-10-14T03:32:22;13.70;91.30
13115;DHT22;6623;52.120;8.660;2022-10-14T03:34:47;14.20;91.40
13115;DHT22;6623;52.120;8.660;2022-10-14T03:37:12;13.60;91.20
13115;DHT22;6623;52.120;8.660;2022-10-14T03:39:38;13.70;91.20
13115;DHT22;6623;52.120;8.660;2022-10-14T03:42:03;14.80;91.50
13115;DHT22;6623;52.120;8.660;2022-10-14T03:44:29;14.00;91.20
13115;DHT22;6623;52.120;8.660;2022-10-14T03:46:54;13.50;91.10
13115;DHT22;6623;52.120;8.660;2022-10-14T03:49:20;13.40;91.10
13115;DHT22;6623;52.120;8.660;2022-10-14T03:51:45;13.40;91.10
13115;DHT22;6623;52.120;8.660;2022-10-14T03:54:11;13.40;91.00
13115;DHT22;6623;52.120;8.660;2022-10-14T03:56:36;15.00;91.40
13115;DHT22;6623;52.120;8.660;2022-10-14T03:59:02;14.40;91.30
13115;DHT22;6623;52.120;8.660;2022-10-14T04:01:28;13.20;91.00
13115;DHT22;6623;52.120;8.660;2022-10-14T04:03:53;14.10;91.20
13115;DHT22;6623;52.120;8.660;2022-10-14T04:06:19;13.40;91.00
13115;DHT22;6623;52.120;8.660;2022-10-14T04:08:44;13.30;91.00
13115;DHT22;6623;52.120;8.660;2022-10-14T04:11:10;13.30;91.00
13115;DHT22;6623;52.120;8.660;2022-10-14T04:13:35;13.20;90.90
13115;DHT22;6623;52.120;8.660;2022-10-14T04:16:03;15.00;91.30
13115;DHT22;6623;52.120;8.660;2022-10-14T04:18:29;13.70;91.00
13115;DHT22;6623;52.120;8.660;2022-10-14T04:20:58;14.20;91.20
13115;DHT22;6623;52.120;8.660;2022-10-14T04:23:23;14.70;91.40
13115;DHT22;6623;52.120;8.660;2022-10-14T04:25:52;14.50;91.30
13115;DHT22;6623;52.120;8.660;2022-10-14T04:28:17;13.20;91.00
13115;DHT22;6623;52.120;8.660;2022-10-14T04:30:43;13.20;91.00
13115;DHT22;6623;52.120;8.660;2022-10-14T04:33:08;15.20;91.50
13115;DHT22;6623;52.120;8.660;2022-10-14T04:35:34;14.00;91.20
13115;DHT22;6623;52.120;8.660;2022-10-14T04:37:59;13.20;91.00
13115;DHT22;6623;52.120;8.660;2022-10-14T04:40:25;14.40;91.30
13115;DHT22;6623;52.120;8.660;2022-10-14T04:42:57;14.70;91.40
13115;DHT22;6623;52.120;8.660;2022-10-14T04:45:23;13.20;90.90
13115;DHT22;6623;52.120;8.660;2022-10-14T04:47:49;13.30;91.00
13115;DHT22;6623;52.120;8.660;2022-10-14T04:50:15;13.30;91.00
13115;DHT22;6623;52.120;8.660;2022-10-14T04:52:41;13.30;90.90
13115;DHT22;6623;52.120;8.660;2022-10-14T04:55:07;14.40;91.30
13115;DHT22;6623;52.120;8.660;2022-10-14T04:57:32;13.30;91.00
13115;DHT22;6623;52.120;8.660;2022-10-14T04:59:58;14.00;91.10
13115;DHT22;6623;52.120;8.660;2022-10-14T05:02:23;13.30;90.90
13115;DHT22;6623;52.120;8.660;2022-10-14T05:04:49;14.80;91.30
13115;DHT22;6623;52.120;8.660;2022-10-14T05:07:14;14.00;91.10
13115;DHT22;6623;52.120;8.660;2022-10-14T05:09:40;14.50;91.30
13115;DHT22;6623;52.120;8.660;2022-10-14T05:12:06;13.60;91.00
13115;DHT22;6623;52.120;8.660;2022-10-14T05:14:31;14.00;91.10
13115;DHT22;6623;52.120;8.660;2022-10-14T05:16:57;13.40;90.90
13115;DHT22;6623;52.120;8.660;2022-10-14T05:19:22;13.30;90.80
13115;DHT22;6623;52.120;8.660;2022-10-14T05:21:48;13.80;90.90
13115;DHT22;6623;52.120;8.660;2022-10-14T05:24:14;14.10;91.00
13115;DHT22;6623;52.120;8.660;2022-10-14T05:26:39;13.30;90.80
13115;DHT22;6623;52.120;8.660;2022-10-14T05:29:05;15.00;91.20
13115;DHT22;6623;52.120;8.660;2022-10-14T05:31:30;13.30;90.80
13115;DHT22;6623;52.120;8.660;2022-10-14T05:33:56;14.60;91.20
13115;DHT22;6623;52.120;8.660;2022-10-14T05:39:06;13.30;90.80
13115;DHT22;6623;52.120;8.660;2022-10-14T05:41:44;14.30;91.10
13115;DHT22;6623;52.120;8.660;2022-10-14T05:44:10;13.50;90.90
13115;DHT22;6623;52.120;8.660;2022-10-14T05:46:38;13.30;90.80
13115;DHT22;6623;52.120;8.660;2022-10-14T05:49:04;13.30;90.80
13115;DHT22;6623;52.120;8.660;2022-10-14T05:51:35;14.00;91.00
13115;DHT22;6623;52.120;8.660;2022-10-14T05:54:00;13.30;90.80
13115;DHT22;6623;52.120;8.660;2022-10-14T05:56:26;13.30;90.80
13115;DHT22;6623;52.120;8.660;2022-10-14T05:58:51;12.90;90.60
13115;DHT22;6623;52.120;8.660;2022-10-14T06:01:17;14.40;91.00
13115;DHT22;6623;52.120;8.660;2022-10-14T06:03:48;14.60;91.20
13115;DHT22;6623;52.120;8.660;2022-10-14T06:06:14;13.30;90.70
13115;DHT22;6623;52.120;8.660;2022-10-14T06:08:45;13.30;90.70
13115;DHT22;6623;52.120;8.660;2022-10-14T06:11:11;13.30;90.70
13115;DHT22;6623;52.120;8.660;2022-10-14T06:13:36;13.30;91.00
13115;DHT22;6623;52.120;8.660;2022-10-14T06:16:06;13.60;90.80
13115;DHT22;6623;52.120;8.660;2022-10-14T06:18:35;13.70;90.80
13115;DHT22;6623;52.120;8.660;2022-10-14T06:21:02;13.30;90.70
13115;DHT22;6623;52.120;8.660;2022-10-14T06:23:31;13.90;90.90
13115;DHT22;6623;52.120;8.660;2022-10-14T06:25:57;13.40;90.80
13115;DHT22;6623;52.120;8.660;2022-10-14T06:28:22;14.40;91.00
13115;DHT22;6623;52.120;8.660;2022-10-14T06:30:48;14.40;91.00
13115;DHT22;6623;52.120;8.660;2022-10-14T06:33:14;13.40;90.80
13115;DHT22;6623;52.120;8.660;2022-10-14T06:35:40;14.70;91.10
13115;DHT22;6623;52.120;8.660;2022-10-14T06:38:09;14.80;91.10
13115;DHT22;6623;52.120;8.660;2022-10-14T06:40:34;13.40;90.70
13115;DHT22;6623;52.120;8.660;2022-10-14T06:43:02;14.00;90.90
13115;DHT22;6623;52.120;8.660;2022-10-14T06:45:28;13.40;90.80
13115;DHT22;6623;52.120;8.660;2022-10-14T06:47:53;14.80;91.20
13115;DHT22;6623;52.120;8.660;2022-10-14T06:50:19;13.50;90.90
13115;DHT22;6623;52.120;8.660;2022-10-14T06:52:44;13.50;90.80
13115;DHT22;6623;52.120;8.660;2022-10-14T06:55:10;14.40;91.10
13115;DHT22;6623;52.120;8.660;2022-10-14T06:57:36;13.80;90.90
13115;DHT22;6623;52.120;8.660;2022-10-14T07:00:02;14.30;91.00
13115;DHT22;6623;52.120;8.660;2022-10-14T07:02:34;13.80;90.90
13115;DHT22;6623;52.120;8.660;2022-10-14T07:04:59;13.50;90.90
13115;DHT22;6623;52.120;8.660;2022-10-14T07:07:25;14.90;91.30
13115;DHT22;6623;52.120;8.660;2022-10-14T07:09:50;13.50;91.00
13115;DHT22;6623;52.120;8.660;2022-10-14T07:12:16;13.60;91.00
13115;DHT22;6623;52.120;8.660;2022-10-14T07:14:41;15.30;91.50
13115;DHT22;6623;52.120;8.660;2022-10-14T07:17:07;15.20;91.40
13115;DHT22;6623;52.120;8.660;2022-10-14T07:19:33;13.60;91.10
13115;DHT22;6623;52.120;8.660;2022-10-14T07:21:58;14.70;91.40
13115;DHT22;6623;52.120;8.660;2022-10-14T07:24:24;13.60;91.10
13115;DHT22;6623;52.120;8.660;2022-10-14T07:26:52;15.20;91.40
13115;DHT22;6623;52.120;8.660;2022-10-14T07:29:18;13.70;91.00
13115;DHT22;6623;52.120;8.660;2022-10-14T07:31:43;14.30;91.10
13115;DHT22;6623;52.120;8.660;2022-10-14T07:34:09;14.80;91.20
13115;DHT22;6623;52.120;8.660;2022-10-14T07:36:35;14.60;91.20
13115;DHT22;6623;52.120;8.660;2022-10-14T07:39:00;15.20;91.30
13115;DHT22;6623;52.120;8.660;2022-10-14T07:41:26;15.10;91.30
13115;DHT22;6623;52.120;8.660;2022-10-14T07:43:53;13.60;91.00
13115;DHT22;6623;52.120;8.660;2022-10-14T07:46:20;14.60;91.20
13115;DHT22;6623;52.120;8.660;2022-10-14T07:49:26;15.10;91.40
13115;DHT22;6623;52.120;8.660;2022-10-14T07:51:45;13.70;90.90
13115;DHT22;6623;52.120;8.660;2022-10-14T07:54:12;13.70;91.00
13115;DHT22;6623;52.120;8.660;2022-10-14T07:56:39;13.70;91.00
13115;DHT22;6623;52.120;8.660;2022-10-14T07:59:04;14.10;91.10
13115;DHT22;6623;52.120;8.660;2022-10-14T08:01:30;14.30;91.00
13115;DHT22;6623;52.120;8.660;2022-10-14T08:03:56;14.80;91.20
13115;DHT22;6623;52.120;8.660;2022-10-14T08:06:21;14.60;91.10
13115;DHT22;6623;52.120;8.660;2022-10-14T08:08:47;14.90;91.20
13115;DHT22;6623;52.120;8.660;2022-10-14T08:11:14;15.20;91.40
13115;DHT22;6623;52.120;8.660;2022-10-14T08:13:40;13.90;91.20
13115;DHT22;6623;52.120;8.660;2022-10-14T08:16:13;15.20;91.60
13115;DHT22;6623;52.120;8.660;2022-10-14T08:18:38;14.10;91.10
13115;DHT22;6623;52.120;8.660;2022-10-14T08:21:04;15.70;91.30
13115;DHT22;6623;52.120;8.660;2022-10-14T08:23:30;14.10;90.80
13115;DHT22;6623;52.120;8.660;2022-10-14T08:25:57;14.50;90.90
13115;DHT22;6623;52.120;8.660;2022-10-14T08:28:23;15.20;91.10
13115;DHT22;6623;52.120;8.660;2022-10-14T08:30:48;14.10;90.80
13115;DHT22;6623;52.120;8.660;2022-10-14T08:33:14;14.80;91.10
13115;DHT22;6623;52.120;8.660;2022-10-14T08:35:40;15.10;91.20
13115;DHT22;6623;52.120;8.660;2022-10-14T08:38:05;14.50;90.90
13115;DHT22;6623;52.120;8.660;2022-10-14T08:40:47;14.70;90.80
13115;DHT22;6623;52.120;8.660;2022-10-14T08:43:16;14.30;90.60
13115;DHT22;6623;52.120;8.660;2022-10-14T08:45:46;15.50;90.80
13115;DHT22;6623;52.120;8.660;2022-10-14T08:48:18;15.00;90.60
13115;DHT22;6623;52.120;8.660;2022-10-14T08:53:30;14.30;90.60
13115;DHT22;6623;52.120;8.660;2022-10-14T08:55:57;15.20;90.70
13115;DHT22;6623;52.120;8.660;2022-10-14T09:00:57;14.40;90.20
13115;DHT22;6623;52.120;8.660;2022-10-14T09:03:24;15.10;89.90
13115;DHT22;6623;52.120;8.660;2022-10-14T09:08:43;14.60;89.70
13115;DHT22;6623;52.120;8.660;2022-10-14T09:11:10;14.60;89.40
13115;DHT22;6623;52.120;8.660;2022-10-14T09:13:38;15.10;90.00
13115;DHT22;6623;52.120;8.660;2022-10-14T09:16:12;14.70;89.80
13115;DHT22;6623;52.120;8.660;2022-10-14T09:18:41;14.80;89.20
13115;DHT22;6623;52.120;8.660;2022-10-14T09:21:54;14.90;88.40
13115;DHT22;6623;52.120;8.660;2022-10-14T09:24:11;14.90;88.20
13115;DHT22;6623;52.120;8.660;2022-10-14T09:26:44;15.00;88.10
13115;DHT22;6623;52.120;8.660;2022-10-14T09:29:18;15.00;87.50
13115;DHT22;6623;52.120;8.660;2022-10-14T09:31:45;15.00;87.50
13115;DHT22;6623;52.120;8.660;2022-10-14T09:34:17;15.40;87.40
13115;DHT22;6623;52.120;8.660;2022-10-14T09:36:43;15.20;87.70
13115;DHT22;6623;52.120;8.660;2022-10-14T09:39:09;15.70;87.50
13115;DHT22;6623;52.120;8.660;2022-10-14T09:41:36;15.30;87.20
13115;DHT22;6623;52.120;8.660;2022-10-14T09:44:22;15.70;87.40
13115;DHT22;6623;52.120;8.660;2022-10-14T09:46:51;15.30;86.80
13115;DHT22;6623;52.120;8.660;2022-10-14T09:49:20;16.20;86.50
13115;DHT22;6623;52.120;8.660;2022-10-14T09:51:50;16.10;86.40
13115;DHT22;6623;52.120;8.660;2022-10-14T09:54:21;15.90;86.30
13115;DHT22;6623;52.120;8.660;2022-10-14T09:56:47;15.40;85.90
13115;DHT22;6623;52.120;8.660;2022-10-14T09:59:17;14.90;85.60
13115;DHT22;6623;52.120;8.660;2022-10-14T10:01:52;15.40;86.30
13115;DHT22;6623;52.120;8.660;2022-10-14T10:06:55;15.50;85.20
13115;DHT22;6623;52.120;8.660;2022-10-14T10:09:21;15.70;84.90
13115;DHT22;6623;52.120;8.660;2022-10-14T10:11:46;16.90;84.90
13115;DHT22;6623;52.120;8.660;2022-10-14T10:16:51;15.50;84.60
13115;DHT22;6623;52.120;8.660;2022-10-14T10:19:39;15.50;84.80
13115;DHT22;6623;52.120;8.660;2022-10-14T10:22:18;15.50;84.80
13115;DHT22;6623;52.120;8.660;2022-10-14T10:24:46;15.60;84.30
13115;DHT22;6623;52.120;8.660;2022-10-14T10:27:25;15.70;84.60
13115;DHT22;6623;52.120;8.660;2022-10-14T10:29:51;15.70;84.40
13115;DHT22;6623;52.120;8.660;2022-10-14T10:35:13;15.90;83.60
13115;DHT22;6623;52.120;8.660;2022-10-14T10:40:29;15.90;81.90
13115;DHT22;6623;52.120;8.660;2022-10-14T10:45:42;15.90;81.70
13115;DHT22;6623;52.120;8.660;2022-10-14T10:48:14;15.90;82.20
13115;DHT22;6623;52.120;8.660;2022-10-14T10:55:38;16.80;82.80
13115;DHT22;6623;52.120;8.660;2022-10-14T10:58:12;15.90;82.30
13115;DHT22;6623;52.120;8.660;2022-10-14T11:01:05;15.90;82.70
13115;DHT22;6623;52.120;8.660;2022-10-14T11:03:52;16.00;82.50
13115;DHT22;6623;52.120;8.660;2022-10-14T11:09:07;16.20;81.80
13115;DHT22;6623;52.120;8.660;2022-10-14T11:12:02;16.30;82.00
13115;DHT22;6623;52.120;8.660;2022-10-14T11:14:41;16.30;81.20
13115;DHT22;6623;52.120;8.660;2022-10-14T11:17:13;17.20;81.90
13115;DHT22;6623;52.120;8.660;2022-10-14T11:27:14;17.20;80.70
13115;DHT22;6623;52.120;8.660;2022-10-14T11:29:49;17.80;80.40
13115;DHT22;6623;52.120;8.660;2022-10-14T11:40:19;16.60;80.00
13115;DHT22;6623;52.120;8.660;2022-10-14T11:46:06;16.70;80.10
13115;DHT22;6623;52.120;8.660;2022-10-14T11:51:29;16.70;79.50
13115;DHT22;6623;52.120;8.660;2022-10-14T11:56:34;16.80;79.20
13115;DHT22;6623;52.120;8.660;2022-10-14T11:59:02;16.80;79.40
13115;DHT22;6623;52.120;8.660;2022-10-14T12:01:43;17.50;79.50
13115;DHT22;6623;52.120;8.660;2022-10-14T12:04:10;16.90;79.80
13115;DHT22;6623;52.120;8.660;2022-10-14T12:07:11;16.90;79.20
13115;DHT22;6623;52.120;8.660;2022-10-14T12:11:56;17.90;79.60
13115;DHT22;6623;52.120;8.660;2022-10-14T12:16:58;17.30;79.80
13115;DHT22;6623;52.120;8.660;2022-10-14T12:19:28;17.00;79.60
13115;DHT22;6623;52.120;8.660;2022-10-14T12:21:59;17.40;80.20
13115;DHT22;6623;52.120;8.660;2022-10-14T12:24:30;17.20;79.80
13115;DHT22;6623;52.120;8.660;2022-10-14T12:26:59;17.30;77.70
13115;DHT22;6623;52.120;8.660;2022-10-14T12:29:43;17.30;77.70
13115;DHT22;6623;52.120;8.660;2022-10-14T12:34:42;17.40;76.60
13115;DHT22;6623;52.120;8.660;2022-10-14T12:37:50;18.10;76.70
13115;DHT22;6623;52.120;8.660;2022-10-14T12:45:15;17.50;77.00
13115;DHT22;6623;52.120;8.660;2022-10-14T12:47:41;17.60;76.60
13115;DHT22;6623;52.120;8.660;2022-10-14T12:52:40;17.70;74.60
13115;DHT22;6623;52.120;8.660;2022-10-14T12:55:14;18.20;74.80
13115;DHT22;6623;52.120;8.660;2022-10-14T12:57:40;17.80;74.30
13115;DHT22;6623;52.120;8.660;2022-10-14T13:02:44;17.70;74.30
13115;DHT22;6623;52.120;8.660;2022-10-14T13:05:21;17.70;74.30
13115;DHT22;6623;52.120;8.660;2022-10-14T13:15:49;17.80;73.00
13115;DHT22;6623;52.120;8.660;2022-10-14T13:20:55;17.70;73.80
13115;DHT22;6623;52.120;8.660;2022-10-14T13:23:40;17.90;74.40
13115;DHT22;6623;52.120;8.660;2022-10-14T13:31:33;17.60;74.50
13115;DHT22;6623;52.120;8.660;2022-10-14T13:34:05;18.30;75.20
13115;DHT22;6623;52.120;8.660;2022-10-14T13:36:38;17.60;74.90
13115;DHT22;6623;52.120;8.660;2022-10-14T13:39:07;17.70;75.00
13115;DHT22;6623;52.120;8.660;2022-10-14T13:41:33;17.90;75.00
13115;DHT22;6623;52.120;8.660;2022-10-14T13:43:58;18.50;75.20
13115;DHT22;6623;52.120;8.660;2022-10-14T13:48:54;17.50;74.60
13115;DHT22;6623;52.120;8.660;2022-10-14T13:53:50;17.50;74.90
13115;DHT22;6623;52.120;8.660;2022-10-14T13:56:27;18.20;75.40
13115;DHT22;6623;52.120;8.660;2022-10-14T13:58:53;17.40;75.00
13115;DHT22;6623;52.120;8.660;2022-10-14T14:01:19;18.60;75.90
13115;DHT22;6623;52.120;8.660;2022-10-14T14:03:48;18.30;75.80
13115;DHT22;6623;52.120;8.660;2022-10-14T14:06:15;17.40;75.50
13115;DHT22;6623;52.120;8.660;2022-10-14T14:08:52;17.20;75.40
13115;DHT22;6623;52.120;8.660;2022-10-14T14:11:19;17.30;75.80
13115;DHT22;6623;52.120;8.660;2022-10-14T14:13:47;17.70;76.00
13115;DHT22;6623;52.120;8.660;2022-10-14T14:16:20;17.40;75.90
13115;DHT22;6623;52.120;8.660;2022-10-14T14:18:47;17.30;76.10
13115;DHT22;6623;52.120;8.660;2022-10-14T14:21:22;18.00;76.80
13115;DHT22;6623;52.120;8.660;2022-10-14T14:23:49;18.20;76.90
13115;DHT22;6623;52.120;8.660;2022-10-14T14:26:15;17.60;76.50
13115;DHT22;6623;52.120;8.660;2022-10-14T14:28:40;18.80;77.30
13115;DHT22;6623;52.120;8.660;2022-10-14T14:31:10;17.30;76.40
13115;DHT22;6623;52.120;8.660;2022-10-14T14:33:38;17.20;76.30
13115;DHT22;6623;52.120;8.660;2022-10-14T14:36:06;17.30;76.60
13115;DHT22;6623;52.120;8.660;2022-10-14T14:38:37;17.20;76.50
13115;DHT22;6623;52.120;8.660;2022-10-14T14:41:03;18.20;77.30
13115;DHT22;6623;52.120;8.660;2022-10-14T14:43:30;17.80;77.00
13115;DHT22;6623;52.120;8.660;2022-10-14T14:45:56;18.50;78.00
13115;DHT22;6623;52.120;8.660;2022-10-14T14:48:22;17.80;77.00
13115;DHT22;6623;52.120;8.660;2022-10-14T14:50:48;17.30;76.90
13115;DHT22;6623;52.120;8.660;2022-10-14T14:53:20;17.70;77.20
13115;DHT22;6623;52.120;8.660;2022-10-14T14:56:00;17.20;77.00
13115;DHT22;6623;52.120;8.660;2022-10-14T14:58:37;17.20;77.20
13115;DHT22;6623;52.120;8.660;2022-10-14T15:01:14;17.20;77.20
13115;DHT22;6623;52.120;8.660;2022-10-14T15:06:15;17.10;77.20
13115;DHT22;6623;52.120;8.660;2022-10-14T15:08:42;17.50;77.60
13115;DHT22;6623;52.120;8.660;2022-10-14T15:11:15;17.80;77.80
13115;DHT22;6623;52.120;8.660;2022-10-14T15:13:42;17.10;77.40
13115;DHT22;6623;52.120;8.660;2022-10-14T15:16:08;18.10;78.20
13115;DHT22;6623;52.120;8.660;2022-10-14T15:18:34;17.10;77.70
13115;DHT22;6623;52.120;8.660;2022-10-14T15:26:21;17.00;77.90
13115;DHT22;6623;52.120;8.660;2022-10-14T15:29:01;17.00;78.00
13115;DHT22;6623;52.120;8.660;2022-10-14T15:31:26;17.90;78.70
13115;DHT22;6623;52.120;8.660;2022-10-14T15:33:52;17.00;78.40
13115;DHT22;6623;52.120;8.660;2022-10-14T15:36:17;17.40;78.60
13115;DHT22;6623;52.120;8.660;2022-10-14T15:38:43;17.10;79.60
13115;DHT22;6623;52.120;8.660;2022-10-14T15:41:08;16.90;80.70
13115;DHT22;6623;52.120;8.660;2022-10-14T15:43:34;16.90;81.30
13115;DHT22;6623;52.120;8.660;2022-10-14T15:46:00;18.20;83.10
13115;DHT22;6623;52.120;8.660;2022-10-14T15:48:48;17.30;83.30
13115;DHT22;6623;52.120;8.660;2022-10-14T15:51:16;16.70;83.10
13115;DHT22;6623;52.120;8.660;2022-10-14T15:53:42;16.80;83.90
13115;DHT22;6623;52.120;8.660;2022-10-14T15:56:07;16.80;85.90
13115;DHT22;6623;52.120;8.660;2022-10-14T15:58:34;17.30;86.30
13115;DHT22;6623;52.120;8.660;2022-10-14T16:01:00;17.60;86.80
13115;DHT22;6623;52.120;8.660;2022-10-14T16:03:26;17.40;86.90
13115;DHT22;6623;52.120;8.660;2022-10-14T16:05:52;17.90;87.30
13115;DHT22;6623;52.120;8.660;2022-10-14T16:08:26;16.40;86.80
13115;DHT22;6623;52.120;8.660;2022-10-14T16:10:53;17.40;87.40
13115;DHT22;6623;52.120;8.660;2022-10-14T16:13:19;16.40;87.20
13115;DHT22;6623;52.120;8.660;2022-10-14T16:15:49;16.20;87.40
13115;DHT22;6623;52.120;8.660;2022-10-14T16:18:19;16.20;87.50
13115;DHT22;6623;52.120;8.660;2022-10-14T16:20:46;17.40;88.40
13115;DHT22;6623;52.120;8.660;2022-10-14T16:23:15;16.70;88.20
13115;DHT22;6623;52.120;8.660;2022-10-14T16:25:44;16.10;88.00
13115;DHT22;6623;52.120;8.660;2022-10-14T16:28:11;16.10;88.70
13115;DHT22;6623;52.120;8.660;2022-10-14T16:30:38;16.90;88.90
13115;DHT22;6623;52.120;8.660;2022-10-14T16:33:04;16.10;88.20
13115;DHT22;6623;52.120;8.660;2022-10-14T16:35:30;16.10;88.40
13115;DHT22;6623;52.120;8.660;2022-10-14T16:37:55;16.80;88.70
13115;DHT22;6623;52.120;8.660;2022-10-14T16:40:21;16.10;88.60
13115;DHT22;6623;52.120;8.660;2022-10-14T16:42:47;16.00;88.70
13115;DHT22;6623;52.120;8.660;2022-10-14T16:45:12;16.00;88.70
13115;DHT22;6623;52.120;8.660;2022-10-14T16:47:38;16.80;89.30
13115;DHT22;6623;52.120;8.660;2022-10-14T16:50:05;16.70;89.30
13115;DHT22;6623;52.120;8.660;2022-10-14T16:52:35;16.00;88.90
13115;DHT22;6623;52.120;8.660;2022-10-14T16:55:19;16.00;89.00
13115;DHT22;6623;52.120;8.660;2022-10-14T16:57:45;17.40;89.70
13115;DHT22;6623;52.120;8.660;2022-10-14T17:00:11;15.90;88.90
13115;DHT22;6623;52.120;8.660;2022-10-14T17:02:37;15.90;88.90
13115;DHT22;6623;52.120;8.660;2022-10-14T17:05:02;16.20;89.10
13115;DHT22;6623;52.120;8.660;2022-10-14T17:07:28;15.90;89.00
13115;DHT22;6623;52.120;8.660;2022-10-14T17:09:53;15.80;88.90
13115;DHT22;6623;52.120;8.660;2022-10-14T17:12:19;16.30;89.20
13115;DHT22;6623;52.120;8.660;2022-10-14T17:14:44;16.40;89.40
13115;DHT22;6623;52.120;8.660;2022-10-14T17:17:10;16.70;89.50
13115;DHT22;6623;52.120;8.660;2022-10-14T17:19:37;16.30;89.30
13115;DHT22;6623;52.120;8.660;2022-10-14T17:22:05;16.00;89.10
13115;DHT22;6623;52.120;8.660;2022-10-14T17:24:31;16.30;89.40
13115;DHT22;6623;52.120;8.660;2022-10-14T17:26:56;16.50;89.40
13115;DHT22;6623;52.120;8.660;2022-10-14T17:29:22;16.60;89.40
13115;DHT22;6623;52.120;8.660;2022-10-14T17:31:48;17.20;89.80
13115;DHT22;6623;52.120;8.660;2022-10-14T17:34:13;15.70;89.00
13115;DHT22;6623;52.120;8.660;2022-10-14T17:36:39;17.50;90.00
13115;DHT22;6623;52.120;8.660;2022-10-14T17:39:08;15.80;89.70
13115;DHT22;6623;52.120;8.660;2022-10-14T17:41:36;15.80;89.00
13115;DHT22;6623;52.120;8.660;2022-10-14T17:44:02;17.40;90.10
13115;DHT22;6623;52.120;8.660;2022-10-14T17:46:28;15.70;89.20
13115;DHT22;6623;52.120;8.660;2022-10-14T17:48:54;15.60;89.10
13115;DHT22;6623;52.120;8.660;2022-10-14T17:51:20;16.90;90.00
13115;DHT22;6623;52.120;8.660;2022-10-14T17:56:41;15.50;89.40
13115;DHT22;6623;52.120;8.660;2022-10-14T17:59:09;16.30;89.80
13115;DHT22;6623;52.120;8.660;2022-10-14T18:01:35;16.00;89.60